sensor_id;sensor_type;location;lat;lon;timestamp;temperature;humidity
51655;DHT22;37732;53.106;7.030;2023-05-18T00:01:13;9.00;99.90
51655;DHT22;37732;53.106;7.030;2023-05-18T00:03:40;9.00;99.90
51655;DHT22;37732;53.106;7.030;2023-05-18T00:06:06;9.00;99.90
51655;DHT22;37732;53.106;7.030;2023-05-18T00:08:33;9.00;99.90
51655;DHT22;37732;53.106;7.030;2023-05-18T00:11:00;9.00;99.90
51655;DHT22;37732;53.106;7.030;2023-05-18T00:13:26;9.00;99.90
51655;DHT22;37732;53.106;7.030;2023-05-18T00:15:51;9.00;99.90
51655;DHT22;37732;53.106;7.030;2023-05-18T00:18:17;9.00;99.90
51655;DHT22;37732;53.106;7.030;2023-05-18T00:20:54;9.00;99.90
51655;DHT22;37732;53.106;7.030;2023-05-18T00:23:29;9.00;99.90
51655;DHT22;37732;53.106;7.030;2023-05-18T00:26:01;8.90;99.90
51655;DHT22;37732;53.106;7.030;2023-05-18T00:28:28;8.90;99.90
51655;DHT22;37732;53.106;7.030;2023-05-18T00:30:54;8.80;99.90
51655;DHT22;37732;53.106;7.030;2023-05-18T00:33:21;8.80;99.90
51655;DHT22;37732;53.106;7.030;2023-05-18T00:35:47;8.80;99.90
51655;DHT22;37732;53.106;7.030;2023-05-18T00:38:13;8.80;99.90
51655;DHT22;37732;53.106;7.030;2023-05-18T00:40:42;8.70;99.90
51655;DHT22;37732;53.106;7.030;2023-05-18T00:43:09;8.70;99.90
51655;DHT22;37732;53.106;7.030;2023-05-18T00:45:35;8.70;99.90
51655;DHT22;37732;53.106;7.030;2023-05-18T00:48:01;8.60;99.90
51655;DHT22;37732;53.106;7.030;2023-05-18T00:50:27;8.60;99.90
51655;DHT22;37732;53.106;7.030;2023-05-18T00:52:53;8.60;99.90
51655;DHT22;37732;53.106;7.030;2023-05-18T00:55:19;8.60;99.90
51655;DHT22;37732;53.106;7.030;2023-05-18T00:57:46;8.60;99.90
51655;DHT22;37732;53.106;7.030;2023-05-18T01:03:09;8.60;99.90
51655;DHT22;37732;53.106;7.030;2023-05-18T01:05:36;8.50;99.90
51655;DHT22;37732;53.106;7.030;2023-05-18T01:08:02;8.50;99.90
51655;DHT22;37732;53.106;7.030;2023-05-18T01:10:32;8.60;99.90
51655;DHT22;37732;53.106;7.030;2023-05-18T01:13:04;8.50;99.90
51655;DHT22;37732;53.106;7.030;2023-05-18T01:15:37;8.60;99.90
51655;DHT22;37732;53.106;7.030;2023-05-18T01:18:24;8.60;99.90
51655;DHT22;37732;53.106;7.030;2023-05-18T01:21:17;8.60;99.90
51655;DHT22;37732;53.106;7.030;2023-05-18T01:24:00;8.60;99.90
51655;DHT22;37732;53.106;7.030;2023-05-18T01:26:32;8.60;99.90
51655;DHT22;37732;53.106;7.030;2023-05-18T01:29:08;8.60;99.90
51655;DHT22;37732;53.106;7.030;2023-05-18T01:31:34;8.60;99.90
51655;DHT22;37732;53.106;7.030;2023-05-18T01:34:00;8.60;99.90
51655;DHT22;37732;53.106;7.030;2023-05-18T01:36:25;8.60;99.90
51655;DHT22;37732;53.106;7.030;2023-05-18T01:38:53;8.60;99.90
51655;DHT22;37732;53.106;7.030;2023-05-18T01:41:23;8.60;99.90
51655;DHT22;37732;53.106;7.030;2023-05-18T01:47:14;8.60;99.90
51655;DHT22;37732;53.106;7.030;2023-05-18T01:50:01;8.60;99.90
51655;DHT22;37732;53.106;7.030;2023-05-18T01:52:42;8.60;99.90
51655;DHT22;37732;53.106;7.030;2023-05-18T01:55:10;8.70;99.90
51655;DHT22;37732;53.106;7.030;2023-05-18T01:57:38;8.60;99.90
51655;DHT22;37732;53.106;7.030;2023-05-18T02:00:05;8.60;99.90
51655;DHT22;37732;53.106;7.030;2023-05-18T02:02:35;8.60;99.90
51655;DHT22;37732;53.106;7.030;2023-05-18T02:05:01;8.60;99.90
51655;DHT22;37732;53.106;7.030;2023-05-18T02:07:27;8.60;99.90
51655;DHT22;37732;53.106;7.030;2023-05-18T02:09:52;8.60;99.90
51655;DHT22;37732;53.106;7.030;2023-05-18T02:12:18;8.60;99.90
51655;DHT22;37732;53.106;7.030;2023-05-18T02:14:44;8.50;99.90
51655;DHT22;37732;53.106;7.030;2023-05-18T02:17:11;8.60;99.90
51655;DHT22;37732;53.106;7.030;2023-05-18T02:19:36;8.60;99.90
51655;DHT22;37732;53.106;7.030;2023-05-18T02:22:06;8.60;99.90
51655;DHT22;37732;53.106;7.030;2023-05-18T02:24:33;8.60;99.90
51655;DHT22;37732;53.106;7.030;2023-05-18T02:26:58;8.60;99.90
51655;DHT22;37732;53.106;7.030;2023-05-18T02:29:24;8.70;99.90
51655;DHT22;37732;53.106;7.030;2023-05-18T02:31:51;8.70;99.90
51655;DHT22;37732;53.106;7.030;2023-05-18T02:34:16;8.60;99.90
51655;DHT22;37732;53.106;7.030;2023-05-18T02:36:42;8.60;99.90
51655;DHT22;37732;53.106;7.030;2023-05-18T02:39:08;8.60;99.90
51655;DHT22;37732;53.106;7.030;2023-05-18T02:41:36;8.60;99.90
51655;DHT22;37732;53.106;7.030;2023-05-18T02:44:02;8.60;99.90
51655;DHT22;37732;53.106;7.030;2023-05-18T02:46:29;8.60;99.90
51655;DHT22;37732;53.106;7.030;2023-05-18T02:48:54;8.50;99.90
51655;DHT22;37732;53.106;7.030;2023-05-18T02:51:20;8.60;99.90
51655;DHT22;37732;53.106;7.030;2023-05-18T02:53:47;8.60;99.90
51655;DHT22;37732;53.106;7.030;2023-05-18T02:56:13;8.50;99.90
51655;DHT22;37732;53.106;7.030;2023-05-18T02:58:38;8.60;99.90
51655;DHT22;37732;53.106;7.030;2023-05-18T03:01:05;8.60;99.90
51655;DHT22;37732;53.106;7.030;2023-05-18T03:03:33;8.60;99.90
51655;DHT22;37732;53.106;7.030;2023-05-18T03:06:00;8.50;99.90
51655;DHT22;37732;53.106;7.030;2023-05-18T03:08:27;8.50;99.90
51655;DHT22;37732;53.106;7.030;2023-05-18T03:10:54;8.50;99.90
51655;DHT22;37732;53.106;7.030;2023-05-18T03:13:20;8.40;99.90
51655;DHT22;37732;53.106;7.030;2023-05-18T03:15:46;8.50;99.90
51655;DHT22;37732;53.106;7.030;2023-05-18T03:18:13;8.50;99.90
51655;DHT22;37732;53.106;7.030;2023-05-18T03:20:39;8.50;99.90
51655;DHT22;37732;53.106;7.030;2023-05-18T03:23:05;8.50;99.90
51655;DHT22;37732;53.106;7.030;2023-05-18T03:25:31;8.40;99.90
51655;DHT22;37732;53.106;7.030;2023-05-18T03:27:58;8.40;99.90
51655;DHT22;37732;53.106;7.030;2023-05-18T03:30:24;8.40;99.90
51655;DHT22;37732;53.106;7.030;2023-05-18T03:32:50;8.40;99.90
51655;DHT22;37732;53.106;7.030;2023-05-18T03:35:16;8.40;99.90
51655;DHT22;37732;53.106;7.030;2023-05-18T03:37:41;8.40;99.90
51655;DHT22;37732;53.106;7.030;2023-05-18T03:40:12;8.40;99.90
51655;DHT22;37732;53.106;7.030;2023-05-18T03:42:40;8.40;99.90
51655;DHT22;37732;53.106;7.030;2023-05-18T03:45:08;8.40;99.90
51655;DHT22;37732;53.106;7.030;2023-05-18T03:47:34;8.40;99.90
51655;DHT22;37732;53.106;7.030;2023-05-18T03:50:01;8.40;99.90
51655;DHT22;37732;53.106;7.030;2023-05-18T03:52:27;9.10;99.90
51655;DHT22;37732;53.106;7.030;2023-05-18T03:54:54;8.40;99.90
51655;DHT22;37732;53.106;7.030;2023-05-18T03:57:21;8.40;99.90
51655;DHT22;37732;53.106;7.030;2023-05-18T03:59:47;8.40;99.90
51655;DHT22;37732;53.106;7.030;2023-05-18T04:02:13;8.30;99.90
51655;DHT22;37732;53.106;7.030;2023-05-18T04:04:41;8.40;99.90
51655;DHT22;37732;53.106;7.030;2023-05-18T04:07:14;8.30;99.90
51655;DHT22;37732;53.106;7.030;2023-05-18T04:09:46;8.40;99.90
51655;DHT22;37732;53.106;7.030;2023-05-18T04:12:12;8.40;99.90
51655;DHT22;37732;53.106;7.030;2023-05-18T04:14:38;8.40;99.90
51655;DHT22;37732;53.106;7.030;2023-05-18T04:17:06;8.40;99.90
51655;DHT22;37732;53.106;7.030;2023-05-18T04:19:36;8.40;99.90
51655;DHT22;37732;53.106;7.030;2023-05-18T04:22:03;8.50;99.90
51655;DHT22;37732;53.106;7.030;2023-05-18T04:24:32;8.40;99.90
51655;DHT22;37732;53.106;7.030;2023-05-18T04:27:02;8.50;99.90
51655;DHT22;37732;53.106;7.030;2023-05-18T04:29:29;8.40;99.90
51655;DHT22;37732;53.106;7.030;2023-05-18T04:31:58;8.50;99.90
51655;DHT22;37732;53.106;7.030;2023-05-18T04:34:27;8.50;99.90
51655;DHT22;37732;53.106;7.030;2023-05-18T04:36:54;8.50;99.90
51655;DHT22;37732;53.106;7.030;2023-05-18T04:39:21;8.50;99.90
51655;DHT22;37732;53.106;7.030;2023-05-18T04:41:48;8.50;99.90
51655;DHT22;37732;53.106;7.030;2023-05-18T04:44:16;8.60;99.90
51655;DHT22;37732;53.106;7.030;2023-05-18T04:46:43;8.60;99.90
51655;DHT22;37732;53.106;7.030;2023-05-18T04:49:12;8.60;99.90
51655;DHT22;37732;53.106;7.030;2023-05-18T04:51:39;8.60;99.90
51655;DHT22;37732;53.106;7.030;2023-05-18T04:54:07;8.60;99.90
51655;DHT22;37732;53.106;7.030;2023-05-18T04:56:34;8.60;99.90
51655;DHT22;37732;53.106;7.030;2023-05-18T04:59:00;8.70;99.90
51655;DHT22;37732;53.106;7.030;2023-05-18T05:01:28;8.70;99.90
51655;DHT22;37732;53.106;7.030;2023-05-18T05:03:54;8.70;99.90
51655;DHT22;37732;53.106;7.030;2023-05-18T05:06:19;8.80;99.90
51655;DHT22;37732;53.106;7.030;2023-05-18T05:08:45;8.80;99.90
51655;DHT22;37732;53.106;7.030;2023-05-18T05:11:11;8.80;99.90
51655;DHT22;37732;53.106;7.030;2023-05-18T05:13:36;8.80;99.90
51655;DHT22;37732;53.106;7.030;2023-05-18T05:16:03;8.90;99.90
51655;DHT22;37732;53.106;7.030;2023-05-18T05:18:29;8.90;99.90
51655;DHT22;37732;53.106;7.030;2023-05-18T05:20:55;9.00;99.90
51655;DHT22;37732;53.106;7.030;2023-05-18T05:23:20;9.00;99.90
51655;DHT22;37732;53.106;7.030;2023-05-18T05:25:46;9.10;99.90
51655;DHT22;37732;53.106;7.030;2023-05-18T05:28:12;9.10;99.90
51655;DHT22;37732;53.106;7.030;2023-05-18T05:30:38;9.10;99.90
51655;DHT22;37732;53.106;7.030;2023-05-18T05:33:04;9.20;99.90
51655;DHT22;37732;53.106;7.030;2023-05-18T05:35:30;9.20;99.90
51655;DHT22;37732;53.106;7.030;2023-05-18T05:37:56;9.20;99.90
51655;DHT22;37732;53.106;7.030;2023-05-18T05:40:21;9.30;99.90
51655;DHT22;37732;53.106;7.030;2023-05-18T05:42:47;9.40;99.90
51655;DHT22;37732;53.106;7.030;2023-05-18T05:45:13;9.40;99.90
51655;DHT22;37732;53.106;7.030;2023-05-18T05:47:40;9.50;99.90
51655;DHT22;37732;53.106;7.030;2023-05-18T05:50:06;9.50;99.90
51655;DHT22;37732;53.106;7.030;2023-05-18T05:52:32;9.60;99.90
51655;DHT22;37732;53.106;7.030;2023-05-18T05:54:58;9.60;99.90
51655;DHT22;37732;53.106;7.030;2023-05-18T05:57:24;9.60;99.90
51655;DHT22;37732;53.106;7.030;2023-05-18T05:59:50;9.70;99.90
51655;DHT22;37732;53.106;7.030;2023-05-18T06:02:16;9.80;99.90
51655;DHT22;37732;53.106;7.030;2023-05-18T06:04:41;9.80;99.90
51655;DHT22;37732;53.106;7.030;2023-05-18T06:07:08;9.90;99.90
51655;DHT22;37732;53.106;7.030;2023-05-18T06:09:35;10.00;99.90
51655;DHT22;37732;53.106;7.030;2023-05-18T06:12:01;10.00;99.90
51655;DHT22;37732;53.106;7.030;2023-05-18T06:14:27;10.10;99.90
51655;DHT22;37732;53.106;7.030;2023-05-18T06:16:53;10.10;99.90
51655;DHT22;37732;53.106;7.030;2023-05-18T06:19:19;10.10;99.90
51655;DHT22;37732;53.106;7.030;2023-05-18T06:21:45;10.10;99.90
51655;DHT22;37732;53.106;7.030;2023-05-18T06:24:11;10.20;99.90
51655;DHT22;37732;53.106;7.030;2023-05-18T06:26:36;10.30;99.90
51655;DHT22;37732;53.106;7.030;2023-05-18T06:29:02;10.30;99.90
51655;DHT22;37732;53.106;7.030;2023-05-18T06:31:29;10.40;99.90
51655;DHT22;37732;53.106;7.030;2023-05-18T06:33:57;10.40;99.90
51655;DHT22;37732;53.106;7.030;2023-05-18T06:36:23;10.50;99.90
51655;DHT22;37732;53.106;7.030;2023-05-18T06:38:49;10.60;99.90
51655;DHT22;37732;53.106;7.030;2023-05-18T06:41:15;10.60;99.90
51655;DHT22;37732;53.106;7.030;2023-05-18T06:43:41;10.70;99.90
51655;DHT22;37732;53.106;7.030;2023-05-18T06:46:06;10.70;99.90
51655;DHT22;37732;53.106;7.030;2023-05-18T06:48:32;10.70;99.90
51655;DHT22;37732;53.106;7.030;2023-05-18T06:50:58;10.80;99.90
51655;DHT22;37732;53.106;7.030;2023-05-18T06:53:24;10.80;99.90
51655;DHT22;37732;53.106;7.030;2023-05-18T06:55:50;10.80;99.90
51655;DHT22;37732;53.106;7.030;2023-05-18T06:58:18;10.90;99.90
51655;DHT22;37732;53.106;7.030;2023-05-18T07:00:44;10.90;99.90
51655;DHT22;37732;53.106;7.030;2023-05-18T07:03:10;11.00;99.90
51655;DHT22;37732;53.106;7.030;2023-05-18T07:05:36;11.10;99.90
51655;DHT22;37732;53.106;7.030;2023-05-18T07:08:02;11.10;99.90
51655;DHT22;37732;53.106;7.030;2023-05-18T07:10:30;11.10;99.90
51655;DHT22;37732;53.106;7.030;2023-05-18T07:12:56;11.10;99.90
51655;DHT22;37732;53.106;7.030;2023-05-18T07:15:23;11.20;99.90
51655;DHT22;37732;53.106;7.030;2023-05-18T07:17:51;11.30;99.90
51655;DHT22;37732;53.106;7.030;2023-05-18T07:20:17;11.30;99.90
51655;DHT22;37732;53.106;7.030;2023-05-18T07:22:43;11.40;99.90
51655;DHT22;37732;53.106;7.030;2023-05-18T07:25:09;11.40;99.90
51655;DHT22;37732;53.106;7.030;2023-05-18T07:27:36;11.50;99.90
51655;DHT22;37732;53.106;7.030;2023-05-18T07:30:03;11.50;99.90
51655;DHT22;37732;53.106;7.030;2023-05-18T07:32:30;11.60;99.90
51655;DHT22;37732;53.106;7.030;2023-05-18T07:34:56;11.70;99.90
51655;DHT22;37732;53.106;7.030;2023-05-18T07:37:23;11.80;99.90
51655;DHT22;37732;53.106;7.030;2023-05-18T07:39:49;11.80;99.90
51655;DHT22;37732;53.106;7.030;2023-05-18T07:42:15;12.00;99.90
51655;DHT22;37732;53.106;7.030;2023-05-18T07:44:41;12.20;99.90
51655;DHT22;37732;53.106;7.030;2023-05-18T07:47:07;12.40;99.90
51655;DHT22;37732;53.106;7.030;2023-05-18T07:49:32;12.50;99.90
51655;DHT22;37732;53.106;7.030;2023-05-18T07:51:58;12.70;99.90
51655;DHT22;37732;53.106;7.030;2023-05-18T07:54:24;12.80;99.90
51655;DHT22;37732;53.106;7.030;2023-05-18T07:56:51;12.90;99.90
51655;DHT22;37732;53.106;7.030;2023-05-18T07:59:17;13.10;99.90
51655;DHT22;37732;53.106;7.030;2023-05-18T08:01:42;13.30;99.70
51655;DHT22;37732;53.106;7.030;2023-05-18T08:04:10;13.50;99.20
51655;DHT22;37732;53.106;7.030;2023-05-18T08:06:35;13.60;99.00
51655;DHT22;37732;53.106;7.030;2023-05-18T08:09:02;13.80;98.80
51655;DHT22;37732;53.106;7.030;2023-05-18T08:11:28;13.90;99.00
51655;DHT22;37732;53.106;7.030;2023-05-18T08:13:53;14.00;98.30
51655;DHT22;37732;53.106;7.030;2023-05-18T08:16:19;13.90;97.90
51655;DHT22;37732;53.106;7.030;2023-05-18T08:18:46;13.90;97.70
51655;DHT22;37732;53.106;7.030;2023-05-18T08:21:11;14.10;97.40
51655;DHT22;37732;53.106;7.030;2023-05-18T08:23:38;14.30;97.70
51655;DHT22;37732;53.106;7.030;2023-05-18T08:26:04;14.60;97.60
51655;DHT22;37732;53.106;7.030;2023-05-18T08:28:30;14.70;96.40
51655;DHT22;37732;53.106;7.030;2023-05-18T08:30:57;14.90;96.60
51655;DHT22;37732;53.106;7.030;2023-05-18T08:33:23;15.10;95.40
51655;DHT22;37732;53.106;7.030;2023-05-18T08:35:49;15.40;96.00
51655;DHT22;37732;53.106;7.030;2023-05-18T08:38:14;15.50;95.60
51655;DHT22;37732;53.106;7.030;2023-05-18T08:43:30;16.00;94.00
51655;DHT22;37732;53.106;7.030;2023-05-18T08:46:16;16.00;94.30
51655;DHT22;37732;53.106;7.030;2023-05-18T08:48:44;16.00;93.30
51655;DHT22;37732;53.106;7.030;2023-05-18T08:51:12;15.90;94.50
51655;DHT22;37732;53.106;7.030;2023-05-18T08:53:44;15.80;93.60
51655;DHT22;37732;53.106;7.030;2023-05-18T08:56:14;15.70;93.70
51655;DHT22;37732;53.106;7.030;2023-05-18T08:58:44;15.70;93.80
51655;DHT22;37732;53.106;7.030;2023-05-18T09:01:13;15.80;94.50
51655;DHT22;37732;53.106;7.030;2023-05-18T09:03:39;15.90;94.90
51655;DHT22;37732;53.106;7.030;2023-05-18T09:06:06;15.80;93.00
51655;DHT22;37732;53.106;7.030;2023-05-18T09:08:32;15.80;94.10
51655;DHT22;37732;53.106;7.030;2023-05-18T09:11:01;15.80;93.90
51655;DHT22;37732;53.106;7.030;2023-05-18T09:13:28;15.70;93.30
51655;DHT22;37732;53.106;7.030;2023-05-18T09:15:55;15.60;92.60
51655;DHT22;37732;53.106;7.030;2023-05-18T09:18:21;15.50;93.20
51655;DHT22;37732;53.106;7.030;2023-05-18T09:20:46;15.50;93.40
51655;DHT22;37732;53.106;7.030;2023-05-18T09:23:13;15.70;93.40
51655;DHT22;37732;53.106;7.030;2023-05-18T09:25:43;15.80;93.40
51655;DHT22;37732;53.106;7.030;2023-05-18T09:28:24;15.90;92.50
51655;DHT22;37732;53.106;7.030;2023-05-18T09:30:51;15.90;91.70
51655;DHT22;37732;53.106;7.030;2023-05-18T09:33:19;16.00;92.60
51655;DHT22;37732;53.106;7.030;2023-05-18T09:35:49;16.10;92.40
51655;DHT22;37732;53.106;7.030;2023-05-18T09:38:16;16.10;92.10
51655;DHT22;37732;53.106;7.030;2023-05-18T09:40:47;16.10;91.90
51655;DHT22;37732;53.106;7.030;2023-05-18T09:43:16;16.00;91.60
51655;DHT22;37732;53.106;7.030;2023-05-18T09:45:44;16.00;91.80
51655;DHT22;37732;53.106;7.030;2023-05-18T09:48:11;15.90;92.00
51655;DHT22;37732;53.106;7.030;2023-05-18T09:50:37;16.00;91.70
51655;DHT22;37732;53.106;7.030;2023-05-18T09:53:06;15.90;91.10
51655;DHT22;37732;53.106;7.030;2023-05-18T09:55:36;16.10;91.10
51655;DHT22;37732;53.106;7.030;2023-05-18T09:58:06;15.90;90.70
51655;DHT22;37732;53.106;7.030;2023-05-18T10:00:38;15.90;91.40
51655;DHT22;37732;53.106;7.030;2023-05-18T10:03:16;15.90;91.30
51655;DHT22;37732;53.106;7.030;2023-05-18T10:05:43;15.90;90.60
51655;DHT22;37732;53.106;7.030;2023-05-18T10:08:11;15.80;90.80
51655;DHT22;37732;53.106;7.030;2023-05-18T10:10:39;16.00;90.80
51655;DHT22;37732;53.106;7.030;2023-05-18T10:13:12;16.10;90.90
51655;DHT22;37732;53.106;7.030;2023-05-18T10:15:46;16.10;90.70
51655;DHT22;37732;53.106;7.030;2023-05-18T10:18:33;16.20;90.90
51655;DHT22;37732;53.106;7.030;2023-05-18T10:21:01;16.20;90.60
51655;DHT22;37732;53.106;7.030;2023-05-18T10:23:31;16.50;90.10
51655;DHT22;37732;53.106;7.030;2023-05-18T10:25:58;16.60;88.60
51655;DHT22;37732;53.106;7.030;2023-05-18T10:28:32;16.70;90.10
51655;DHT22;37732;53.106;7.030;2023-05-18T10:30:58;16.80;90.70
51655;DHT22;37732;53.106;7.030;2023-05-18T10:33:27;16.70;91.10
51655;DHT22;37732;53.106;7.030;2023-05-18T10:35:53;16.60;90.40
51655;DHT22;37732;53.106;7.030;2023-05-18T10:38:25;16.50;90.20
51655;DHT22;37732;53.106;7.030;2023-05-18T10:40:55;16.50;89.30
51655;DHT22;37732;53.106;7.030;2023-05-18T10:43:22;16.40;90.70
51655;DHT22;37732;53.106;7.030;2023-05-18T10:45:53;16.40;91.00
51655;DHT22;37732;53.106;7.030;2023-05-18T10:48:21;16.30;90.90
51655;DHT22;37732;53.106;7.030;2023-05-18T10:50:52;16.40;91.20
51655;DHT22;37732;53.106;7.030;2023-05-18T10:53:23;16.40;91.80
51655;DHT22;37732;53.106;7.030;2023-05-18T10:55:53;16.60;91.60
51655;DHT22;37732;53.106;7.030;2023-05-18T10:58:26;16.80;90.50
51655;DHT22;37732;53.106;7.030;2023-05-18T11:00:58;17.00;90.70
51655;DHT22;37732;53.106;7.030;2023-05-18T11:03:25;17.20;90.30
51655;DHT22;37732;53.106;7.030;2023-05-18T11:06:06;17.40;88.70
51655;DHT22;37732;53.106;7.030;2023-05-18T11:08:55;17.60;87.60
51655;DHT22;37732;53.106;7.030;2023-05-18T11:11:22;17.70;85.90
51655;DHT22;37732;53.106;7.030;2023-05-18T11:13:50;17.80;85.70
51655;DHT22;37732;53.106;7.030;2023-05-18T11:16:17;17.80;84.50
51655;DHT22;37732;53.106;7.030;2023-05-18T11:18:48;17.90;84.10
51655;DHT22;37732;53.106;7.030;2023-05-18T11:26:53;18.50;81.40
51655;DHT22;37732;53.106;7.030;2023-05-18T11:29:44;18.50;81.50
51655;DHT22;37732;53.106;7.030;2023-05-18T11:32:28;18.60;80.60
51655;DHT22;37732;53.106;7.030;2023-05-18T11:34:57;18.90;80.10
51655;DHT22;37732;53.106;7.030;2023-05-18T11:40:08;19.10;79.10
51655;DHT22;37732;53.106;7.030;2023-05-18T11:42:36;19.10;78.30
51655;DHT22;37732;53.106;7.030;2023-05-18T11:45:09;19.20;79.70
51655;DHT22;37732;53.106;7.030;2023-05-18T11:47:36;19.20;78.90
51655;DHT22;37732;53.106;7.030;2023-05-18T11:50:09;19.20;79.30
51655;DHT22;37732;53.106;7.030;2023-05-18T11:53:07;19.10;78.70
51655;DHT22;37732;53.106;7.030;2023-05-18T11:55:36;19.10;76.20
51655;DHT22;37732;53.106;7.030;2023-05-18T11:58:03;19.10;77.10
51655;DHT22;37732;53.106;7.030;2023-05-18T12:00:32;19.40;77.60
51655;DHT22;37732;53.106;7.030;2023-05-18T12:03:00;19.60;75.60
51655;DHT22;37732;53.106;7.030;2023-05-18T12:05:29;19.90;75.10
51655;DHT22;37732;53.106;7.030;2023-05-18T12:07:55;19.60;75.80
51655;DHT22;37732;53.106;7.030;2023-05-18T12:10:22;19.40;76.50
51655;DHT22;37732;53.106;7.030;2023-05-18T12:12:52;19.20;76.10
51655;DHT22;37732;53.106;7.030;2023-05-18T12:15:22;19.20;74.70
51655;DHT22;37732;53.106;7.030;2023-05-18T12:17:50;19.20;73.90
51655;DHT22;37732;53.106;7.030;2023-05-18T12:20:20;19.20;72.70
51655;DHT22;37732;53.106;7.030;2023-05-18T12:22:48;19.40;76.00
51655;DHT22;37732;53.106;7.030;2023-05-18T12:25:23;19.30;74.20
51655;DHT22;37732;53.106;7.030;2023-05-18T12:27:50;19.50;75.70
51655;DHT22;37732;53.106;7.030;2023-05-18T12:30:20;19.40;75.80
51655;DHT22;37732;53.106;7.030;2023-05-18T12:32:51;19.20;75.80
51655;DHT22;37732;53.106;7.030;2023-05-18T12:35:27;19.30;76.50
51655;DHT22;37732;53.106;7.030;2023-05-18T12:37:55;19.10;72.90
51655;DHT22;37732;53.106;7.030;2023-05-18T12:40:23;19.10;76.30
51655;DHT22;37732;53.106;7.030;2023-05-18T12:42:57;19.10;75.50
51655;DHT22;37732;53.106;7.030;2023-05-18T12:45:31;19.30;75.30
51655;DHT22;37732;53.106;7.030;2023-05-18T12:50:31;19.70;75.90
51655;DHT22;37732;53.106;7.030;2023-05-18T12:52:57;19.60;75.90
51655;DHT22;37732;53.106;7.030;2023-05-18T12:55:23;19.50;75.10
51655;DHT22;37732;53.106;7.030;2023-05-18T13:00:35;19.70;74.80
51655;DHT22;37732;53.106;7.030;2023-05-18T13:03:09;19.50;74.20
51655;DHT22;37732;53.106;7.030;2023-05-18T13:05:35;19.30;74.60
51655;DHT22;37732;53.106;7.030;2023-05-18T13:08:02;19.50;75.30
51655;DHT22;37732;53.106;7.030;2023-05-18T13:10:29;19.50;75.90
51655;DHT22;37732;53.106;7.030;2023-05-18T13:12:56;19.50;76.60
51655;DHT22;37732;53.106;7.030;2023-05-18T13:15:48;19.70;76.70
51655;DHT22;37732;53.106;7.030;2023-05-18T13:18:15;19.60;75.50
51655;DHT22;37732;53.106;7.030;2023-05-18T13:20:49;19.70;75.00
51655;DHT22;37732;53.106;7.030;2023-05-18T13:23:21;19.80;73.50
51655;DHT22;37732;53.106;7.030;2023-05-18T13:25:47;19.70;74.30
51655;DHT22;37732;53.106;7.030;2023-05-18T13:28:17;19.60;74.40
51655;DHT22;37732;53.106;7.030;2023-05-18T13:30:44;19.50;73.30
51655;DHT22;37732;53.106;7.030;2023-05-18T13:33:10;19.60;75.50
51655;DHT22;37732;53.106;7.030;2023-05-18T13:35:40;19.60;75.90
51655;DHT22;37732;53.106;7.030;2023-05-18T13:38:07;19.70;73.80
51655;DHT22;37732;53.106;7.030;2023-05-18T13:40:34;19.70;73.70
51655;DHT22;37732;53.106;7.030;2023-05-18T13:43:00;19.80;74.30
51655;DHT22;37732;53.106;7.030;2023-05-18T13:45:26;19.90;74.70
51655;DHT22;37732;53.106;7.030;2023-05-18T13:47:51;19.90;75.40
51655;DHT22;37732;53.106;7.030;2023-05-18T13:50:21;19.90;75.20
51655;DHT22;37732;53.106;7.030;2023-05-18T13:52:47;19.90;74.90
51655;DHT22;37732;53.106;7.030;2023-05-18T13:55:13;19.90;75.50
51655;DHT22;37732;53.106;7.030;2023-05-18T13:57:39;20.10;74.80
51655;DHT22;37732;53.106;7.030;2023-05-18T14:00:06;20.20;74.30
51655;DHT22;37732;53.106;7.030;2023-05-18T14:02:45;19.90;73.70
51655;DHT22;37732;53.106;7.030;2023-05-18T14:05:12;19.70;74.00
51655;DHT22;37732;53.106;7.030;2023-05-18T14:07:39;19.70;75.50
51655;DHT22;37732;53.106;7.030;2023-05-18T14:10:07;19.80;75.60
51655;DHT22;37732;53.106;7.030;2023-05-18T14:12:33;19.80;73.80
51655;DHT22;37732;53.106;7.030;2023-05-18T14:14:59;19.60;73.00
51655;DHT22;37732;53.106;7.030;2023-05-18T14:17:25;19.50;73.60
51655;DHT22;37732;53.106;7.030;2023-05-18T14:19:52;19.50;74.30
51655;DHT22;37732;53.106;7.030;2023-05-18T14:22:18;19.50;73.50
51655;DHT22;37732;53.106;7.030;2023-05-18T14:24:46;19.40;74.00
51655;DHT22;37732;53.106;7.030;2023-05-18T14:27:12;19.30;74.50
51655;DHT22;37732;53.106;7.030;2023-05-18T14:29:39;19.20;74.70
51655;DHT22;37732;53.106;7.030;2023-05-18T14:32:07;19.30;75.10
51655;DHT22;37732;53.106;7.030;2023-05-18T14:34:33;19.20;74.20
51655;DHT22;37732;53.106;7.030;2023-05-18T14:36:59;19.10;73.60
51655;DHT22;37732;53.106;7.030;2023-05-18T14:39:25;19.00;73.90
51655;DHT22;37732;53.106;7.030;2023-05-18T14:41:52;18.90;74.20
51655;DHT22;37732;53.106;7.030;2023-05-18T14:44:17;18.80;72.60
51655;DHT22;37732;53.106;7.030;2023-05-18T14:46:43;18.80;72.60
51655;DHT22;37732;53.106;7.030;2023-05-18T14:49:10;18.70;72.30
51655;DHT22;37732;53.106;7.030;2023-05-18T14:51:36;18.80;72.80
51655;DHT22;37732;53.106;7.030;2023-05-18T14:54:02;18.60;72.80
51655;DHT22;37732;53.106;7.030;2023-05-18T14:56:27;18.50;73.50
51655;DHT22;37732;53.106;7.030;2023-05-18T14:58:53;18.40;73.80
51655;DHT22;37732;53.106;7.030;2023-05-18T15:01:19;18.50;74.30
51655;DHT22;37732;53.106;7.030;2023-05-18T15:03:44;18.60;74.60
51655;DHT22;37732;53.106;7.030;2023-05-18T15:06:10;18.60;74.50
51655;DHT22;37732;53.106;7.030;2023-05-18T15:08:37;18.50;74.10
51655;DHT22;37732;53.106;7.030;2023-05-18T15:11:07;18.50;74.20
51655;DHT22;37732;53.106;7.030;2023-05-18T15:13:33;18.30;74.60
51655;DHT22;37732;53.106;7.030;2023-05-18T15:16:00;18.20;73.90
51655;DHT22;37732;53.106;7.030;2023-05-18T15:18:26;18.10;73.00
51655;DHT22;37732;53.106;7.030;2023-05-18T15:20:52;18.10;73.60
51655;DHT22;37732;53.106;7.030;2023-05-18T15:23:18;18.20;73.70
51655;DHT22;37732;53.106;7.030;2023-05-18T15:25:44;18.20;74.00
51655;DHT22;37732;53.106;7.030;2023-05-18T15:28:10;18.20;72.80
51655;DHT22;37732;53.106;7.030;2023-05-18T15:30:36;18.00;73.60
51655;DHT22;37732;53.106;7.030;2023-05-18T15:33:02;18.00;74.60
51655;DHT22;37732;53.106;7.030;2023-05-18T15:35:30;17.90;75.00
51655;DHT22;37732;53.106;7.030;2023-05-18T15:37:56;17.90;74.40
51655;DHT22;37732;53.106;7.030;2023-05-18T15:40:22;18.00;73.70
51655;DHT22;37732;53.106;7.030;2023-05-18T15:42:48;18.10;73.80
51655;DHT22;37732;53.106;7.030;2023-05-18T15:45:14;18.10;73.70
51655;DHT22;37732;53.106;7.030;2023-05-18T15:47:40;18.10;73.60
51655;DHT22;37732;53.106;7.030;2023-05-18T15:50:07;18.10;73.20
51655;DHT22;37732;53.106;7.030;2023-05-18T15:52:33;18.10;73.40
51655;DHT22;37732;53.106;7.030;2023-05-18T15:54:59;18.10;74.30
51655;DHT22;37732;53.106;7.030;2023-05-18T15:57:25;18.10;73.60
51655;DHT22;37732;53.106;7.030;2023-05-18T15:59:51;18.00;73.80
51655;DHT22;37732;53.106;7.030;2023-05-18T16:02:17;18.00;73.40
51655;DHT22;37732;53.106;7.030;2023-05-18T16:04:44;17.90;74.20